Time;durP1;ratioP1;P1;durP2;ratioP2;P2;SDS_P1;SDS_P2;PMS_P1;PMS_P2;Temp;Humidity;BMP_temperature;BMP_pressure;BME280_temperature;BME280_humidity;BME280_pressure;Samples;Min_cycle;Max_cycle;Signal;HPM_P1;HPM_P2
2022/01/17 00:01:33;;;;;;;6.35;2.50;;;17.00;55.00;;;;;;4969815;28;93008;-75
2022/01/17 00:03:59;;;;;;;5.50;2.30;;;17.00;54.80;;;;;;4970753;28;92825;-75
2022/01/17 00:06:24;;;;;;;6.18;2.40;;;17.00;54.80;;;;;;4969102;28;96141;-75
2022/01/17 00:08:51;;;;;;;7.25;2.40;;;16.90;54.70;;;;;;4970740;28;95131;-74
2022/01/17 00:11:18;;;;;;;9.00;2.10;;;16.90;54.70;;;;;;4971305;28;93098;-76
2022/01/17 00:13:45;;;;;;;6.07;2.20;;;16.90;54.70;;;;;;4971198;28;92727;-75
2022/01/17 00:21:04;;;;;;;7.35;2.20;;;16.90;54.70;;;;;;4971964;28;92912;-75
2022/01/17 00:23:32;;;;;;;7.93;2.25;;;16.90;54.70;;;;;;4970503;28;92212;-75
2022/01/17 00:25:58;;;;;;;5.22;2.00;;;16.90;54.60;;;;;;4969118;28;94281;-75
2022/01/17 00:28:24;;;;;;;5.55;2.10;;;16.90;54.60;;;;;;4970665;28;93497;-76
2022/01/17 00:30:49;;;;;;;3.90;1.80;;;16.90;54.70;;;;;;4968872;28;94995;-74
2022/01/17 00:33:15;;;;;;;6.10;2.35;;;16.90;54.70;;;;;;4970684;28;92964;-74
2022/01/17 00:35:41;;;;;;;5.65;2.35;;;16.90;54.60;;;;;;4970085;28;93556;-74
2022/01/17 00:38:08;;;;;;;4.85;1.80;;;16.80;54.60;;;;;;4970180;28;93979;-75
2022/01/17 00:40:33;;;;;;;6.53;2.03;;;16.80;54.50;;;;;;4970481;28;92550;-74
2022/01/17 00:42:59;;;;;;;8.07;2.67;;;16.80;54.50;;;;;;4969910;28;92625;-74
2022/01/17 00:45:27;;;;;;;7.50;2.42;;;16.80;54.60;;;;;;4970245;28;104486;-74
2022/01/17 00:47:57;;;;;;;6.22;2.10;;;16.80;54.50;;;;;;4970513;28;93883;-74
2022/01/17 00:50:28;;;;;;;5.60;1.80;;;16.80;54.50;;;;;;4970253;28;92540;-74
2022/01/17 00:52:55;;;;;;;7.00;2.13;;;16.80;54.50;;;;;;4971166;28;92583;-75
2022/01/17 00:55:21;;;;;;;7.55;2.45;;;16.80;54.50;;;;;;4970571;28;96526;-75
2022/01/17 00:57:52;;;;;;;6.45;2.00;;;16.80;54.40;;;;;;4972760;28;95857;-75
2022/01/17 01:00:18;;;;;;;4.82;1.92;;;16.80;54.40;;;;;;4975009;28;92782;-75
2022/01/17 01:02:43;;;;;;;5.65;2.10;;;16.80;54.40;;;;;;4971079;28;92593;-75
2022/01/17 01:05:10;;;;;;;6.85;1.90;;;16.80;54.50;;;;;;4970191;28;94285;-75
2022/01/17 01:07:35;;;;;;;5.95;2.13;;;16.80;54.30;;;;;;4970350;28;94125;-75
2022/01/17 01:10:10;;;;;;;5.85;2.10;;;16.80;54.40;;;;;;4969725;28;92916;-75
2022/01/17 01:12:40;;;;;;;5.80;1.98;;;16.80;55.30;;;;;;4970528;28;91742;-75
2022/01/17 01:15:12;;;;;;;7.18;2.30;;;16.80;54.30;;;;;;4969353;28;94060;-75
2022/01/17 01:17:49;;;;;;;7.80;2.50;;;16.80;54.30;;;;;;4969339;28;94832;-75
2022/01/17 01:28:13;;;;;;;6.95;1.75;;;16.70;54.20;;;;;;4970621;28;92554;-74
2022/01/17 01:30:43;;;;;;;8.27;2.30;;;16.70;54.10;;;;;;4970279;28;92888;-75
2022/01/17 01:33:08;;;;;;;6.95;2.00;;;16.70;54.10;;;;;;4970588;28;92957;-75
2022/01/17 01:35:43;;;;;;;5.40;1.92;;;16.70;54.10;;;;;;4969543;28;94011;-74
2022/01/17 01:38:08;;;;;;;5.47;2.10;;;16.70;54.10;;;;;;4970932;28;93212;-74
2022/01/17 01:40:36;;;;;;;5.50;1.90;;;16.70;54.10;;;;;;4969649;28;92933;-74
2022/01/17 01:43:01;;;;;;;5.90;1.80;;;16.70;54.10;;;;;;4970092;28;92403;-75
2022/01/17 01:45:27;;;;;;;6.65;2.05;;;16.70;54.00;;;;;;4967894;28;96590;-74
2022/01/17 01:47:53;;;;;;;4.75;1.98;;;16.70;54.00;;;;;;4969920;28;96590;-75
2022/01/17 01:50:19;;;;;;;5.10;1.85;;;16.70;54.00;;;;;;4970247;28;92596;-75
2022/01/17 01:52:46;;;;;;;6.55;1.98;;;16.70;54.00;;;;;;4969940;28;92963;-75
2022/01/17 01:55:15;;;;;;;6.35;2.00;;;16.70;54.00;;;;;;4969142;28;93087;-75
2022/01/17 01:57:42;;;;;;;6.22;1.73;;;16.70;54.00;;;;;;4969991;28;93188;-75
2022/01/17 02:00:10;;;;;;;4.43;2.20;;;16.70;53.90;;;;;;4969146;28;92680;-75
2022/01/17 02:02:36;;;;;;;5.30;1.88;;;16.80;53.90;;;;;;4973748;28;92168;-75
2022/01/17 02:05:03;;;;;;;5.28;1.63;;;16.80;53.90;;;;;;4972408;28;94861;-75
2022/01/17 02:07:29;;;;;;;4.63;1.83;;;16.80;53.80;;;;;;4972811;28;93983;-75
2022/01/17 02:09:55;;;;;;;5.47;1.83;;;16.80;53.80;;;;;;4971779;28;95409;-76
2022/01/17 02:12:21;;;;;;;5.90;1.75;;;16.80;53.80;;;;;;4973163;28;92497;-75
2022/01/17 02:14:50;;;;;;;4.97;1.98;;;16.80;53.60;;;;;;4972095;28;94170;-75
2022/01/17 02:17:16;;;;;;;4.55;1.95;;;16.80;53.60;;;;;;4972226;28;94765;-76
2022/01/17 02:19:46;;;;;;;5.82;2.00;;;16.80;53.50;;;;;;4971981;28;93306;-75
2022/01/17 02:22:14;;;;;;;6.15;1.92;;;16.80;53.50;;;;;;4972971;28;92873;-75
2022/01/17 02:24:41;;;;;;;6.00;2.00;;;16.80;53.40;;;;;;4971790;28;93904;-75
2022/01/17 02:27:06;;;;;;;5.28;1.95;;;16.80;53.40;;;;;;4972090;28;92645;-75
2022/01/17 02:29:32;;;;;;;5.15;1.90;;;16.90;53.30;;;;;;4972331;28;92443;-75
2022/01/17 02:31:57;;;;;;;4.90;2.00;;;16.90;53.30;;;;;;4972254;28;92556;-75
2022/01/17 02:34:23;;;;;;;7.25;2.00;;;16.90;53.30;;;;;;4971141;28;95502;-76
2022/01/17 02:36:50;;;;;;;4.10;1.60;;;16.90;53.30;;;;;;4972733;28;95171;-75
2022/01/17 02:39:16;;;;;;;6.50;1.85;;;16.90;53.20;;;;;;4972408;28;93009;-76
2022/01/17 02:41:49;;;;;;;4.15;1.67;;;16.90;53.20;;;;;;4972579;28;92521;-76
2022/01/17 02:44:15;;;;;;;3.72;1.52;;;16.90;53.10;;;;;;4970463;28;94023;-75
2022/01/17 02:46:41;;;;;;;6.07;1.65;;;16.90;53.10;;;;;;4972560;28;93875;-75
2022/01/17 02:49:08;;;;;;;5.68;1.98;;;16.90;53.00;;;;;;4972708;28;92919;-75
2022/01/17 02:51:38;;;;;;;4.35;1.70;;;16.90;53.00;;;;;;4975083;28;92507;-76
2022/01/17 02:54:04;;;;;;;6.28;1.98;;;16.90;52.90;;;;;;4977096;28;92505;-75
2022/01/17 02:56:29;;;;;;;6.20;1.80;;;16.90;53.00;;;;;;4975954;28;92890;-75
2022/01/17 02:58:55;;;;;;;5.95;1.90;;;16.90;52.90;;;;;;4972439;28;95281;-75
2022/01/17 03:01:25;;;;;;;4.90;1.83;;;16.90;52.90;;;;;;4972074;28;92602;-76
2022/01/17 03:03:51;;;;;;;6.30;1.50;;;16.90;52.80;;;;;;4971290;28;95276;-75
2022/01/17 03:06:17;;;;;;;4.63;1.65;;;16.90;52.80;;;;;;4971542;28;92937;-76
2022/01/17 03:08:45;;;;;;;5.25;1.67;;;16.90;52.80;;;;;;4971635;28;92950;-75
2022/01/17 03:11:16;;;;;;;6.72;1.65;;;16.90;52.70;;;;;;4970418;28;93102;-75
2022/01/17 03:13:43;;;;;;;5.00;2.10;;;16.90;52.70;;;;;;4971396;28;93241;-74
2022/01/17 03:16:13;;;;;;;5.32;1.85;;;16.90;52.80;;;;;;4970678;28;94746;-75
2022/01/17 03:18:43;;;;;;;4.18;1.65;;;16.90;52.70;;;;;;4972607;28;93062;-75
2022/01/17 03:21:12;;;;;;;5.20;1.70;;;16.90;52.70;;;;;;4971272;28;92952;-75
2022/01/17 03:23:39;;;;;;;4.68;1.67;;;16.90;52.70;;;;;;4970109;28;95918;-75
2022/01/17 03:26:06;;;;;;;4.78;1.75;;;16.90;52.70;;;;;;4971391;28;95298;-75
2022/01/17 03:28:32;;;;;;;3.85;1.63;;;16.90;52.70;;;;;;4971104;28;93028;-77
2022/01/17 03:31:00;;;;;;;5.10;1.52;;;16.90;52.70;;;;;;4972154;28;93262;-76
2022/01/17 03:33:27;;;;;;;4.28;1.30;;;16.90;53.70;;;;;;4969829;28;93191;-75
2022/01/17 03:35:53;;;;;;;5.30;1.48;;;16.90;52.80;;;;;;4970865;28;93134;-76
2022/01/17 03:38:22;;;;;;;6.45;1.75;;;16.80;52.70;;;;;;4971752;28;92524;-76
2022/01/17 03:40:51;;;;;;;4.30;1.40;;;16.80;52.60;;;;;;4972413;28;92229;-75
2022/01/17 03:43:18;;;;;;;5.28;1.60;;;16.80;52.50;;;;;;4971095;28;93601;-76
2022/01/17 03:45:45;;;;;;;3.95;1.58;;;16.80;52.60;;;;;;4970640;28;92699;-75
2022/01/17 03:48:11;;;;;;;4.55;1.60;;;16.80;52.70;;;;;;4970642;28;95329;-75
2022/01/17 03:50:37;;;;;;;4.85;1.50;;;16.80;52.70;;;;;;4971773;28;92545;-76
2022/01/17 03:53:04;;;;;;;4.72;1.55;;;16.80;52.70;;;;;;4971108;28;93318;-76
2022/01/17 03:55:33;;;;;;;5.30;1.60;;;16.80;52.70;;;;;;4970847;28;93879;-75
2022/01/17 03:57:59;;;;;;;3.95;1.33;;;16.80;52.70;;;;;;4970854;28;92597;-75
2022/01/17 05:43:58;;;;;;;4.00;1.30;;;18.50;49.10;;;;;;4872889;22;97324;-75
2022/01/17 05:46:24;;;;;;;4.90;1.50;;;18.50;49.30;;;;;;4992754;28;93197;-75
2022/01/17 05:48:51;;;;;;;5.68;1.85;;;18.50;49.30;;;;;;4993695;28;93052;-75
2022/01/17 05:51:16;;;;;;;3.95;1.38;;;18.50;49.40;;;;;;4993133;28;93111;-75
2022/01/17 05:53:42;;;;;;;3.58;1.50;;;18.40;49.40;;;;;;4995251;28;92822;-75
2022/01/17 05:56:08;;;;;;;4.13;2.05;;;18.40;49.40;;;;;;4994555;28;92511;-75
2022/01/17 05:58:33;;;;;;;5.25;1.63;;;18.40;49.50;;;;;;4994231;28;92987;-75
2022/01/17 06:00:59;;;;;;;5.10;1.52;;;18.30;49.60;;;;;;4992265;28;96531;-75
2022/01/17 06:03:25;;;;;;;3.85;1.30;;;18.30;49.60;;;;;;4994017;28;96371;-74
2022/01/17 06:05:52;;;;;;;3.67;1.40;;;18.30;49.80;;;;;;4994413;28;92985;-75
2022/01/17 06:08:17;;;;;;;4.65;1.40;;;18.20;49.70;;;;;;4994206;28;92451;-75
2022/01/17 06:10:43;;;;;;;3.58;1.30;;;18.30;49.80;;;;;;4993358;28;93067;-75
2022/01/17 06:13:09;;;;;;;6.55;2.03;;;18.20;49.80;;;;;;4994168;28;92945;-74
2022/01/17 06:15:35;;;;;;;6.30;1.45;;;18.20;49.90;;;;;;4993786;28;93095;-74
2022/01/17 06:18:01;;;;;;;4.13;1.60;;;18.20;50.00;;;;;;4994918;28;92237;-74
2022/01/17 06:20:27;;;;;;;3.65;1.50;;;18.20;50.00;;;;;;4994354;28;93076;-73
2022/01/17 06:22:55;;;;;;;5.53;1.40;;;18.10;50.00;;;;;;4993643;28;93150;-74
2022/01/17 06:25:20;;;;;;;6.70;1.63;;;18.10;50.00;;;;;;4994108;28;95411;-74
2022/01/17 06:27:46;;;;;;;5.03;1.40;;;18.00;50.50;;;;;;4994174;28;92699;-75
2022/01/17 06:30:13;;;;;;;4.25;1.63;;;18.00;50.70;;;;;;4994628;28;93016;-74
2022/01/17 06:32:41;;;;;;;4.88;1.83;;;18.00;50.70;;;;;;4996821;28;94379;-74
2022/01/17 06:35:07;;;;;;;6.22;1.85;;;17.90;50.80;;;;;;4995595;28;92829;-72
2022/01/17 06:37:35;;;;;;;6.05;1.80;;;17.90;50.80;;;;;;4994549;28;93057;-73
2022/01/17 06:40:02;;;;;;;6.38;1.67;;;17.90;51.00;;;;;;4994057;28;93834;-74
2022/01/17 06:42:28;;;;;;;4.03;1.48;;;17.90;51.10;;;;;;4999799;28;94667;-73
2022/01/17 06:44:53;;;;;;;4.32;1.42;;;17.80;51.20;;;;;;5012920;28;92750;-73
2022/01/17 06:47:20;;;;;;;3.65;1.40;;;17.80;51.20;;;;;;5012975;28;93006;-73
2022/01/17 06:49:46;;;;;;;3.47;1.65;;;17.70;51.30;;;;;;5013093;28;95574;-74
2022/01/17 06:52:11;;;;;;;4.45;1.65;;;17.70;51.40;;;;;;5014266;28;96042;-73
2022/01/17 06:54:37;;;;;;;5.03;1.80;;;17.70;51.40;;;;;;5014261;28;93177;-73
2022/01/17 06:57:03;;;;;;;6.35;1.80;;;17.70;51.50;;;;;;5013978;28;93072;-75
2022/01/17 06:59:29;;;;;;;6.53;2.40;;;17.60;51.60;;;;;;5013045;28;92929;-74
2022/01/17 07:01:55;;;;;;;6.35;2.17;;;17.60;51.50;;;;;;5013829;28;92823;-72
2022/01/17 07:04:21;;;;;;;7.80;2.22;;;17.60;51.70;;;;;;5015401;28;92589;-70
2022/01/17 07:06:47;;;;;;;7.95;1.95;;;17.50;51.60;;;;;;5014990;28;91902;-74
2022/01/17 07:09:16;;;;;;;5.75;1.65;;;17.50;51.70;;;;;;5014442;28;93018;-73
2022/01/17 07:11:43;;;;;;;5.35;1.92;;;17.50;51.80;;;;;;5013286;28;93252;-73
2022/01/17 07:14:10;;;;;;;9.80;2.20;;;17.40;51.70;;;;;;5012467;28;95307;-74
2022/01/17 07:16:39;;;;;;;9.15;2.15;;;17.40;51.80;;;;;;5014357;28;92813;-72
2022/01/17 07:19:06;;;;;;;9.85;2.40;;;17.40;51.90;;;;;;5012077;28;93804;-74
2022/01/17 07:21:33;;;;;;;13.18;3.08;;;17.40;52.20;;;;;;5011970;28;92979;-74
2022/01/17 07:24:00;;;;;;;9.40;2.58;;;17.30;52.40;;;;;;5013480;28;92463;-74
2022/01/17 07:26:25;;;;;;;7.20;2.53;;;17.30;52.50;;;;;;5013507;28;92550;-74
2022/01/17 07:28:51;;;;;;;8.73;2.40;;;17.30;52.60;;;;;;5012986;28;93162;-74
2022/01/17 07:31:18;;;;;;;9.60;2.53;;;17.30;52.70;;;;;;5013321;28;94015;-74
2022/01/17 07:33:44;;;;;;;9.75;2.33;;;17.20;52.60;;;;;;5011868;28;92872;-74
2022/01/17 07:36:15;;;;;;;9.65;2.20;;;17.30;52.50;;;;;;5008741;28;92545;-74
2022/01/17 07:38:41;;;;;;;10.43;2.60;;;17.30;52.40;;;;;;5009986;28;98000;-74
2022/01/17 07:41:08;;;;;;;7.68;2.45;;;17.30;52.20;;;;;;5012431;28;95145;-74
2022/01/17 07:43:34;;;;;;;9.38;2.90;;;17.40;52.10;;;;;;5010465;28;92563;-74
2022/01/17 07:46:07;;;;;;;8.70;2.80;;;17.40;52.00;;;;;;4992813;28;92604;-74
2022/01/17 07:51:21;;;;;;;8.45;2.70;;;17.40;51.80;;;;;;5011998;28;93161;-74
2022/01/17 07:53:47;;;;;;;10.30;2.58;;;17.40;51.70;;;;;;5011706;28;93006;-74
2022/01/17 07:56:13;;;;;;;10.57;2.70;;;17.40;51.60;;;;;;5011885;28;92262;-73
2022/01/17 07:58:40;;;;;;;9.77;3.03;;;17.40;51.50;;;;;;5011244;28;92980;-74
2022/01/17 08:01:07;;;;;;;8.05;2.53;;;17.40;51.40;;;;;;5012111;28;93575;-74
2022/01/17 08:03:33;;;;;;;7.63;2.45;;;17.40;51.30;;;;;;5010212;28;94855;-73
2022/01/17 08:05:59;;;;;;;9.75;2.70;;;17.40;51.30;;;;;;5011261;28;92900;-74
2022/01/17 08:08:26;;;;;;;9.13;2.85;;;17.50;51.30;;;;;;5011982;28;93000;-74
2022/01/17 08:10:53;;;;;;;9.50;2.75;;;17.50;51.20;;;;;;5012953;28;93532;-73
2022/01/17 08:13:20;;;;;;;10.48;2.88;;;17.50;51.10;;;;;;5012976;28;92544;-74
2022/01/17 08:15:46;;;;;;;10.32;2.90;;;17.50;51.00;;;;;;5013816;28;92580;-73
2022/01/17 08:18:13;;;;;;;9.00;2.92;;;17.50;50.90;;;;;;5005986;28;94226;-72
2022/01/17 08:20:40;;;;;;;8.30;2.67;;;17.50;50.80;;;;;;5013360;28;92790;-73
2022/01/17 08:23:06;;;;;;;11.20;2.78;;;17.50;50.80;;;;;;5011465;28;92541;-74
2022/01/17 08:25:31;;;;;;;8.52;2.45;;;17.50;50.70;;;;;;5011761;28;92522;-74
2022/01/17 08:27:57;;;;;;;7.32;2.58;;;17.60;50.60;;;;;;5010198;28;95395;-74
2022/01/17 08:30:23;;;;;;;10.73;3.00;;;17.60;50.60;;;;;;5011075;28;95132;-74
2022/01/17 08:32:51;;;;;;;9.25;3.10;;;17.60;50.50;;;;;;5011057;28;92839;-74
2022/01/17 08:35:19;;;;;;;8.88;2.70;;;17.60;50.50;;;;;;5009580;28;92774;-74
2022/01/17 08:37:44;;;;;;;8.68;2.60;;;17.60;50.40;;;;;;5002507;28;95643;-74
2022/01/17 08:40:11;;;;;;;9.55;2.90;;;17.50;50.40;;;;;;5011458;28;92727;-74
2022/01/17 08:42:37;;;;;;;7.32;2.55;;;17.50;50.30;;;;;;5010433;28;92781;-74
2022/01/17 08:45:10;;;;;;;6.93;2.45;;;17.60;50.40;;;;;;5011260;28;92165;-73
2022/01/17 08:47:37;;;;;;;7.88;3.03;;;17.60;50.40;;;;;;5002036;28;93652;-74
2022/01/17 08:50:05;;;;;;;7.13;2.70;;;17.60;50.30;;;;;;5010021;28;93331;-73
2022/01/17 08:52:31;;;;;;;10.05;2.90;;;17.60;50.20;;;;;;4991112;28;95045;-73
2022/01/17 08:54:57;;;;;;;9.48;2.55;;;17.60;50.10;;;;;;5011003;28;93645;-73
2022/01/17 08:57:25;;;;;;;10.73;2.50;;;17.60;50.00;;;;;;5010036;28;94617;-73
2022/01/17 08:59:52;;;;;;;9.70;2.58;;;17.70;50.00;;;;;;5010997;28;93105;-73
2022/01/17 09:02:19;;;;;;;8.38;2.85;;;17.70;50.00;;;;;;5011013;28;92608;-73
2022/01/17 09:04:47;;;;;;;6.13;2.38;;;17.70;49.80;;;;;;5011369;28;92980;-73
2022/01/17 09:07:15;;;;;;;7.63;2.50;;;17.70;49.80;;;;;;5011245;28;93263;-72
2022/01/17 09:09:44;;;;;;;7.80;2.70;;;17.70;49.70;;;;;;5010646;28;93327;-74
2022/01/17 09:12:11;;;;;;;9.32;2.60;;;17.70;49.70;;;;;;5013859;28;92919;-73
2022/01/17 09:14:37;;;;;;;9.88;2.80;;;17.70;49.60;;;;;;5012701;28;93064;-73
2022/01/17 09:17:06;;;;;;;8.60;2.95;;;17.70;49.60;;;;;;5011091;28;96409;-74
2022/01/17 09:19:37;;;;;;;6.95;2.55;;;17.70;49.60;;;;;;5012807;28;95111;-74
2022/01/17 09:22:05;;;;;;;7.78;2.85;;;17.70;49.60;;;;;;5013030;28;92649;-74
2022/01/17 09:24:32;;;;;;;7.15;2.58;;;17.70;49.70;;;;;;5012362;28;92902;-74
2022/01/17 09:26:58;;;;;;;8.45;2.67;;;17.70;49.70;;;;;;5011999;28;93692;-74
2022/01/17 09:29:24;;;;;;;7.00;2.60;;;17.60;49.70;;;;;;5012383;28;93784;-74
2022/01/17 09:31:49;;;;;;;9.93;2.72;;;17.60;49.70;;;;;;5012036;28;92820;-74
2022/01/17 09:34:15;;;;;;;9.00;2.65;;;17.60;49.80;;;;;;5012825;28;92168;-74
2022/01/17 09:36:41;;;;;;;11.35;3.25;;;17.50;49.80;;;;;;5012544;28;93193;-74
2022/01/17 09:39:08;;;;;;;8.40;2.70;;;17.60;49.80;;;;;;5012572;28;93082;-72
2022/01/17 09:41:34;;;;;;;10.32;2.83;;;17.50;49.90;;;;;;5010621;28;95061;-74
2022/01/17 09:44:00;;;;;;;10.10;2.60;;;17.50;51.00;;;;;;5011001;28;93289;-74
2022/01/17 09:46:32;;;;;;;12.57;2.97;;;17.40;50.10;;;;;;5011041;28;94097;-74
2022/01/17 09:49:12;;;;;;;10.68;2.72;;;17.40;50.20;;;;;;5010951;28;93992;-74
2022/01/17 09:54:25;;;;;;;12.85;2.85;;;17.40;50.50;;;;;;5011963;28;92662;-74
2022/01/17 09:56:58;;;;;;;12.35;3.10;;;17.30;50.50;;;;;;5013390;28;93220;-74
2022/01/17 09:59:25;;;;;;;10.23;3.20;;;17.30;50.70;;;;;;5017702;28;92962;-74
2022/01/17 10:01:51;;;;;;;10.27;2.60;;;17.30;50.70;;;;;;5017073;28;93060;-74
2022/01/17 10:04:17;;;;;;;10.23;2.75;;;17.20;50.90;;;;;;5012851;28;92628;-72
2022/01/17 10:06:51;;;;;;;7.40;2.20;;;17.20;51.00;;;;;;5010301;28;95992;-74
2022/01/17 10:09:22;;;;;;;8.70;2.28;;;17.20;50.90;;;;;;5011865;28;96290;-73
2022/01/17 10:12:08;;;;;;;9.05;2.30;;;17.20;51.10;;;;;;5011576;28;92505;-74
2022/01/17 10:14:58;;;;;;;9.32;2.38;;;17.10;51.20;;;;;;4993438;28;92724;-74
2022/01/17 10:17:40;;;;;;;9.57;2.90;;;17.10;51.30;;;;;;5011505;28;94665;-74
2022/01/17 10:20:08;;;;;;;10.70;2.63;;;17.00;51.20;;;;;;5011852;28;92883;-73
2022/01/17 10:22:43;;;;;;;9.48;2.88;;;17.00;51.40;;;;;;5009917;28;93905;-74
2022/01/17 10:25:21;;;;;;;11.68;3.10;;;17.00;51.40;;;;;;5011496;28;92175;-73
2022/01/17 10:28:11;;;;;;;9.75;2.97;;;17.00;51.50;;;;;;5003395;28;94779;-73
2022/01/17 10:31:01;;;;;;;9.35;2.92;;;16.90;51.50;;;;;;5010577;28;94554;-74
2022/01/17 10:36:17;;;;;;;11.52;2.92;;;16.90;51.60;;;;;;5011257;28;93137;-74
2022/01/17 10:38:42;;;;;;;9.90;2.58;;;16.90;51.70;;;;;;5010382;28;93090;-73
2022/01/17 10:41:08;;;;;;;8.88;2.72;;;16.80;51.70;;;;;;5010786;28;93215;-73
2022/01/17 10:43:39;;;;;;;9.73;2.55;;;16.80;51.70;;;;;;5010243;28;92733;-74
2022/01/17 10:46:07;;;;;;;12.23;3.03;;;16.80;51.70;;;;;;5010217;28;93052;-74
2022/01/17 10:48:45;;;;;;;10.63;2.67;;;16.80;51.70;;;;;;5010866;28;93181;-74
2022/01/17 10:51:13;;;;;;;9.40;2.60;;;16.80;51.80;;;;;;5011571;28;92951;-73
2022/01/17 10:53:40;;;;;;;8.73;2.67;;;16.80;51.90;;;;;;5010763;28;92774;-73
2022/01/17 10:56:09;;;;;;;9.75;2.90;;;16.70;51.90;;;;;;5011275;28;92921;-73
2022/01/17 10:58:38;;;;;;;9.55;2.67;;;16.70;52.00;;;;;;5009645;28;95676;-73
2022/01/17 11:01:13;;;;;;;9.15;2.78;;;16.70;52.00;;;;;;5010725;28;96588;-73
2022/01/17 11:03:46;;;;;;;8.05;2.60;;;16.80;52.10;;;;;;5011057;28;92945;-73
2022/01/17 11:06:19;;;;;;;9.30;2.90;;;16.70;52.00;;;;;;5010957;28;92887;-72
2022/01/17 11:08:46;;;;;;;;;;;16.70;52.00;;;;;;5011364;28;92994;-73
2022/01/17 11:11:12;;;;;;;8.20;2.45;;;16.70;52.00;;;;;;5011666;28;95613;-72
2022/01/17 11:13:42;;;;;;;8.68;2.60;;;16.70;52.00;;;;;;5010644;28;93192;-72
2022/01/17 11:16:13;;;;;;;11.57;3.00;;;16.80;52.00;;;;;;5011617;28;92349;-72
2022/01/17 11:18:43;;;;;;;10.68;2.88;;;16.80;52.10;;;;;;5012201;28;93690;-72
2022/01/17 11:21:13;;;;;;;9.15;2.25;;;16.80;52.10;;;;;;5010341;28;94475;-72
2022/01/17 11:23:43;;;;;;;11.85;2.97;;;16.80;52.10;;;;;;5009765;28;94936;-72
2022/01/17 11:26:09;;;;;;;13.90;2.92;;;16.80;52.20;;;;;;5010445;28;92919;-72
2022/01/17 11:28:36;;;;;;;8.80;2.75;;;16.80;52.10;;;;;;5010036;28;93136;-73
2022/01/17 11:31:08;;;;;;;11.32;2.63;;;16.80;52.20;;;;;;5010903;28;93911;-73
2022/01/17 11:33:35;;;;;;;11.38;2.58;;;16.90;52.20;;;;;;5010686;28;92909;-73
2022/01/17 11:36:03;;;;;;;11.98;3.05;;;16.90;52.20;;;;;;5011328;28;93133;-73
2022/01/17 11:38:35;;;;;;;10.75;2.95;;;16.90;52.20;;;;;;5011199;28;93923;-73
2022/01/17 11:41:02;;;;;;;10.32;2.88;;;16.90;52.20;;;;;;5012469;28;93621;-73
2022/01/17 11:43:33;;;;;;;8.25;2.50;;;16.90;52.10;;;;;;5012596;28;93033;-72
2022/01/17 11:46:20;;;;;;;10.93;2.38;;;16.90;52.10;;;;;;5013007;28;92634;-72
2022/01/17 11:49:24;;;;;;;10.73;2.85;;;16.90;52.20;;;;;;5000763;28;97274;-72
2022/01/17 11:51:50;;;;;;;9.27;2.90;;;16.90;52.10;;;;;;4990058;28;95471;-73
2022/01/17 11:54:26;;;;;;;8.90;2.42;;;16.90;52.20;;;;;;5010423;28;92736;-72
2022/01/17 11:56:59;;;;;;;9.50;2.50;;;16.90;52.40;;;;;;5009437;28;92907;-74
2022/01/17 11:59:34;;;;;;;11.65;2.55;;;16.90;52.30;;;;;;5010036;28;93497;-72
2022/01/17 12:02:20;;;;;;;11.55;2.90;;;16.90;52.30;;;;;;5010529;28;93084;-70
2022/01/17 12:05:06;;;;;;;10.65;2.60;;;17.00;52.60;;;;;;5002481;28;92437;-71
2022/01/17 12:07:51;;;;;;;13.20;3.17;;;17.00;53.10;;;;;;5011269;28;91990;-72
2022/01/17 12:10:20;;;;;;;12.13;3.10;;;17.00;53.10;;;;;;5009498;28;95356;-72
2022/01/17 12:13:22;;;;;;;10.38;3.10;;;17.00;53.00;;;;;;5009756;28;93895;-73
2022/01/17 12:16:16;;;;;;;10.60;2.80;;;17.00;53.00;;;;;;5008470;28;94981;-72
2022/01/17 12:19:03;;;;;;;11.70;2.70;;;17.00;53.10;;;;;;5010871;28;93006;-73
2022/01/17 12:21:44;;;;;;;8.80;2.50;;;17.00;53.10;;;;;;5008561;28;94237;-72
2022/01/17 12:24:30;;;;;;;13.90;3.25;;;17.00;53.20;;;;;;5009674;28;93149;-72
2022/01/17 12:27:01;;;;;;;11.65;2.97;;;17.00;54.20;;;;;;5009350;28;92864;-72
2022/01/17 12:29:36;;;;;;;8.68;2.83;;;16.90;53.20;;;;;;5010237;28;93019;-72
2022/01/17 12:32:04;;;;;;;9.52;2.85;;;16.90;54.20;;;;;;5009007;28;93737;-73
2022/01/17 12:34:40;;;;;;;11.02;2.80;;;16.90;53.20;;;;;;5009215;28;95001;-73
2022/01/17 12:37:28;;;;;;;12.75;3.20;;;16.90;54.20;;;;;;5009218;28;92552;-73
2022/01/17 12:40:29;;;;;;;10.55;3.50;;;16.90;53.20;;;;;;5009492;28;92671;-72
2022/01/17 12:43:07;;;;;;;8.40;2.88;;;16.90;53.30;;;;;;4996440;28;96589;-72
2022/01/17 12:45:41;;;;;;;13.35;3.05;;;16.80;53.20;;;;;;5007617;28;96230;-73
2022/01/17 12:48:24;;;;;;;12.63;3.10;;;16.80;53.20;;;;;;5008940;28;92516;-73
2022/01/17 12:50:52;;;;;;;14.07;3.70;;;16.80;53.20;;;;;;5008999;28;92594;-73
2022/01/17 12:53:21;;;;;;;11.95;3.10;;;16.80;54.30;;;;;;4992588;28;94381;-73
2022/01/17 12:55:50;;;;;;;14.10;3.17;;;16.80;53.30;;;;;;5008191;28;93083;-73
2022/01/17 12:58:21;;;;;;;9.98;2.90;;;16.80;53.30;;;;;;5009828;28;92751;-73
2022/01/17 13:01:04;;;;;;;13.38;2.85;;;16.80;53.30;;;;;;5002938;28;92273;-73
2022/01/17 13:03:35;;;;;;;10.90;2.88;;;16.80;53.40;;;;;;5009408;28;93650;-73
2022/01/17 13:06:03;;;;;;;10.95;2.95;;;16.70;53.30;;;;;;5009160;28;93890;-73
2022/01/17 13:08:29;;;;;;;12.13;2.92;;;16.70;53.40;;;;;;5008349;28;95363;-73
2022/01/17 13:10:55;;;;;;;12.52;2.90;;;16.70;53.30;;;;;;5008623;28;92971;-73
2022/01/17 13:13:21;;;;;;;10.75;3.10;;;16.70;53.30;;;;;;5009074;28;93997;-73
2022/01/17 13:15:54;;;;;;;13.35;3.20;;;16.80;53.40;;;;;;5007917;28;93145;-74
2022/01/17 13:18:19;;;;;;;16.77;3.47;;;16.80;53.30;;;;;;5009067;28;92829;-73
2022/01/17 13:20:46;;;;;;;12.13;3.28;;;16.80;53.30;;;;;;5009980;28;92899;-73
2022/01/17 13:23:15;;;;;;;14.55;3.60;;;16.80;53.40;;;;;;5010602;28;93176;-73
2022/01/17 13:25:42;;;;;;;13.55;3.15;;;16.70;53.30;;;;;;5011233;28;94512;-73
2022/01/17 13:28:08;;;;;;;11.18;2.78;;;16.80;53.40;;;;;;5012215;28;92920;-73
2022/01/17 13:30:36;;;;;;;12.07;3.15;;;16.80;53.30;;;;;;5011168;28;92550;-73
2022/01/17 13:33:03;;;;;;;12.77;3.58;;;16.80;53.30;;;;;;4990346;28;98730;-74
2022/01/17 13:35:30;;;;;;;12.57;3.50;;;16.80;53.20;;;;;;5009478;28;96338;-73
2022/01/17 13:38:10;;;;;;;12.55;3.33;;;16.80;53.20;;;;;;5009595;28;92782;-73
2022/01/17 13:40:38;;;;;;;12.48;3.72;;;16.90;53.10;;;;;;5009500;28;93024;-73
2022/01/17 13:43:06;;;;;;;13.50;3.13;;;16.80;53.10;;;;;;5009517;28;94111;-73
2022/01/17 13:45:42;;;;;;;12.18;3.05;;;16.90;53.10;;;;;;5008798;28;93259;-73
2022/01/17 13:48:11;;;;;;;12.40;3.30;;;16.90;53.10;;;;;;5009081;28;92452;-73
2022/01/17 13:50:43;;;;;;;13.52;3.20;;;16.80;53.10;;;;;;5009081;28;91899;-73
2022/01/17 13:53:08;;;;;;;15.27;3.45;;;16.80;53.10;;;;;;5007677;28;93050;-73
2022/01/17 13:55:37;;;;;;;14.50;3.58;;;16.80;53.10;;;;;;5007989;28;94209;-73
2022/01/17 13:58:07;;;;;;;12.85;3.55;;;16.80;53.00;;;;;;5011133;28;95047;-72
2022/01/17 14:00:44;;;;;;;17.63;3.78;;;16.80;53.10;;;;;;5012449;28;92411;-73
2022/01/17 14:03:13;;;;;;;16.30;3.60;;;16.90;53.10;;;;;;5012138;28;93564;-72
2022/01/17 14:05:44;;;;;;;12.50;3.15;;;16.80;53.10;;;;;;5012094;28;92878;-73
2022/01/17 14:08:11;;;;;;;10.45;3.35;;;16.80;53.20;;;;;;5012732;28;93177;-73
2022/01/17 14:10:50;;;;;;;11.88;3.33;;;16.80;53.20;;;;;;5012124;28;93092;-73
2022/01/17 14:13:20;;;;;;;13.95;3.70;;;16.80;53.20;;;;;;5013179;28;93042;-73
2022/01/17 14:15:47;;;;;;;14.18;3.28;;;16.80;53.30;;;;;;5011718;28;92788;-74
2022/01/17 14:18:14;;;;;;;12.32;3.10;;;16.80;53.30;;;;;;5011974;28;93111;-73
2022/01/17 14:20:48;;;;;;;12.63;4.03;;;16.80;53.40;;;;;;5011751;28;94045;-73
2022/01/17 14:23:26;;;;;;;14.68;3.80;;;16.80;53.50;;;;;;5009409;28;95719;-72
2022/01/17 14:25:52;;;;;;;14.10;3.40;;;16.80;53.70;;;;;;5010769;28;96260;-73
2022/01/17 14:28:19;;;;;;;12.00;3.50;;;16.80;53.60;;;;;;5010735;28;92885;-73
2022/01/17 14:30:47;;;;;;;11.50;3.15;;;16.80;53.70;;;;;;5010865;28;93839;-73
2022/01/17 14:33:18;;;;;;;13.88;3.72;;;16.90;53.70;;;;;;5010819;28;93717;-73
2022/01/17 14:36:08;;;;;;;15.98;4.00;;;16.80;53.80;;;;;;5003209;28;92793;-73
2022/01/17 14:38:55;;;;;;;15.77;3.58;;;16.80;53.70;;;;;;5010823;28;92549;-73
2022/01/17 14:41:22;;;;;;;16.58;3.95;;;16.80;53.70;;;;;;5012033;28;92098;-73
2022/01/17 14:43:52;;;;;;;14.35;3.63;;;16.80;53.80;;;;;;5010373;28;93983;-73
2022/01/17 14:46:18;;;;;;;14.25;3.75;;;16.80;53.80;;;;;;5010507;28;94836;-73
2022/01/17 14:48:46;;;;;;;14.68;3.70;;;16.80;53.70;;;;;;5010591;28;95542;-72
2022/01/17 14:51:31;;;;;;;15.10;3.80;;;16.80;53.70;;;;;;5011296;28;92718;-73
2022/01/17 14:54:06;;;;;;;13.98;4.43;;;16.80;53.70;;;;;;5005377;28;94165;-73
2022/01/17 15:02:10;;;;;;;14.20;3.95;;;16.70;53.80;;;;;;5011219;28;92704;-73
2022/01/17 15:04:38;;;;;;;13.68;3.55;;;16.70;53.80;;;;;;5011051;28;94065;-73